createdAt,value
2018-08-20T00:01:35.625Z,23.54
2018-08-20T00:04:06.540Z,23.66
2018-08-20T00:06:48.704Z,23.47
2018-08-20T00:09:17.677Z,23.49
2018-08-20T00:11:46.970Z,23.61
2018-08-20T00:14:17.831Z,23.61
2018-08-20T00:16:46.651Z,23.64
2018-08-20T00:19:15.106Z,23.79
2018-08-20T00:21:44.993Z,23.72
2018-08-20T00:24:13.458Z,23.63
2018-08-20T00:26:41.887Z,23.48
2018-08-20T00:29:10.572Z,23.45
2018-08-20T00:31:39.014Z,23.52
2018-08-20T00:34:07.457Z,23.37
2018-08-20T00:36:35.976Z,23.12
2018-08-20T00:39:06.305Z,23.24
2018-08-20T00:41:34.783Z,23.37
2018-08-20T00:44:07.061Z,23.21
2018-08-20T00:46:35.508Z,23.11
2018-08-20T00:49:04.000Z,23.14
2018-08-20T00:51:32.925Z,23.10
2018-08-20T00:54:01.540Z,23.02
2018-08-20T00:56:29.935Z,23.01
2018-08-20T00:58:58.357Z,22.98
2018-08-20T01:01:26.810Z,22.72
2018-08-20T01:03:55.352Z,22.67
2018-08-20T01:06:23.829Z,22.59
2018-08-20T01:08:52.650Z,22.66
2018-08-20T01:11:21.130Z,22.51
2018-08-20T01:13:50.327Z,22.72
2018-08-20T01:16:18.753Z,22.48
2018-08-20T01:18:47.396Z,22.41
2018-08-20T01:21:15.834Z,22.55
2018-08-20T01:23:44.489Z,22.45
2018-08-20T01:26:13.280Z,22.45
2018-08-20T01:28:41.786Z,22.39
2018-08-20T01:31:10.266Z,22.37
2018-08-20T01:33:38.695Z,22.31
2018-08-20T01:36:07.148Z,22.20
2018-08-20T01:38:35.596Z,22.18
2018-08-20T01:41:04.079Z,21.90
2018-08-20T01:43:32.531Z,22.09
2018-08-20T01:46:01.156Z,22.05
2018-08-20T01:48:29.905Z,22.05
2018-08-20T01:50:58.353Z,21.72
2018-08-20T01:53:26.803Z,21.80
2018-08-20T01:55:55.261Z,21.72
2018-08-20T01:58:23.704Z,21.93
2018-08-20T02:00:52.168Z,21.94
2018-08-20T02:03:20.649Z,21.82
2018-08-20T02:05:49.107Z,21.85
2018-08-20T02:08:17.544Z,21.94
2018-08-20T02:10:46.019Z,21.76
2018-08-20T02:13:14.419Z,21.60
2018-08-20T02:15:42.869Z,21.67
2018-08-20T02:18:11.667Z,21.81
2018-08-20T02:20:40.099Z,21.83
2018-08-20T02:23:08.769Z,21.79
2018-08-20T02:25:37.200Z,21.70
2018-08-20T02:28:06.203Z,21.57
2018-08-20T02:30:34.647Z,21.65
2018-08-20T02:33:03.095Z,21.58
2018-08-20T02:35:31.562Z,21.56
2018-08-20T02:38:00.011Z,21.59
2018-08-20T02:40:28.831Z,21.56
2018-08-20T02:42:57.420Z,21.42
2018-08-20T02:45:25.922Z,21.38
2018-08-20T02:47:54.340Z,21.48
2018-08-20T02:50:22.834Z,21.54
2018-08-20T02:52:51.274Z,21.47
2018-08-20T02:55:19.717Z,21.40
2018-08-20T02:57:48.560Z,23.84
2018-08-20T03:00:17.062Z,24.15
2018-08-20T03:02:45.516Z,23.33
2018-08-20T03:05:13.979Z,21.26
2018-08-20T03:07:42.392Z,20.91
2018-08-20T03:10:12.443Z,21.65
2018-08-20T03:12:41.368Z,21.69
2018-08-20T03:15:10.886Z,23.11
2018-08-20T03:17:39.368Z,23.87
2018-08-20T03:20:08.216Z,23.62
2018-08-20T03:22:36.660Z,22.50
2018-08-20T03:25:06.184Z,22.82
2018-08-20T03:27:34.606Z,23.17
2018-08-20T03:30:03.067Z,23.93
2018-08-20T03:32:31.564Z,23.93
2018-08-20T03:34:59.995Z,22.67
2018-08-20T03:37:28.455Z,21.81
2018-08-20T03:39:56.912Z,21.93
2018-08-20T03:42:25.371Z,21.27
2018-08-20T03:44:54.151Z,21.28
2018-08-20T03:47:22.913Z,20.83
2018-08-20T03:49:51.612Z,20.82
2018-08-20T03:52:20.151Z,20.81
2018-08-20T03:54:48.619Z,20.79
2018-08-20T03:57:17.085Z,20.88
2018-08-20T03:59:45.544Z,20.84
2018-08-20T04:02:14.190Z,20.81
2018-08-20T04:04:42.608Z,21.00
2018-08-20T04:07:11.030Z,20.63
2018-08-20T04:09:39.928Z,20.82
2018-08-20T04:12:08.376Z,21.02
2018-08-20T04:14:36.811Z,21.11
2018-08-20T04:17:05.280Z,21.06
2018-08-20T04:19:33.700Z,21.15
2018-08-20T04:22:02.211Z,21.02
2018-08-20T04:24:30.672Z,20.90
2018-08-20T04:26:59.396Z,20.83
2018-08-20T04:29:27.918Z,20.82
2018-08-20T04:31:56.343Z,20.87
2018-08-20T04:34:24.798Z,20.79
2018-08-20T04:36:53.253Z,20.64
2018-08-20T04:39:21.680Z,20.53
2018-08-20T04:41:50.072Z,20.38
2018-08-20T04:44:18.519Z,20.35
2018-08-20T04:46:47.302Z,20.67
2018-08-20T04:49:15.714Z,20.91
2018-08-20T04:51:44.299Z,20.86
2018-08-20T04:54:12.695Z,21.05
2018-08-20T04:56:41.153Z,21.67
2018-08-20T04:59:09.643Z,21.61
2018-08-20T05:01:38.100Z,21.40
2018-08-20T05:04:07.182Z,21.28
2018-08-20T05:06:35.531Z,21.36
2018-08-20T05:09:06.043Z,21.51
2018-08-20T05:11:34.471Z,21.82
2018-08-20T05:14:03.156Z,21.89
2018-08-20T05:16:31.602Z,21.77
2018-08-20T05:19:00.160Z,21.72
2018-08-20T05:21:28.582Z,22.10
2018-08-20T05:23:57.008Z,22.39
2018-08-20T05:26:25.661Z,22.34
2018-08-20T05:28:54.162Z,22.68
2018-08-20T05:31:22.871Z,22.71
2018-08-20T05:33:51.280Z,22.65
2018-08-20T05:36:20.062Z,22.82
2018-08-20T05:38:48.539Z,22.77
2018-08-20T05:41:17.130Z,22.96
2018-08-20T05:43:45.591Z,22.90
2018-08-20T05:46:14.082Z,23.18
2018-08-20T05:48:42.819Z,23.38
2018-08-20T05:51:11.287Z,23.32
2018-08-20T05:53:39.683Z,23.58
2018-08-20T05:56:08.697Z,23.62
2018-08-20T05:58:37.154Z,23.75
2018-08-20T06:01:05.786Z,23.96
2018-08-20T06:03:34.419Z,23.93
2018-08-20T06:06:02.903Z,24.01
2018-08-20T06:08:31.354Z,24.19
2018-08-20T06:10:59.768Z,24.17
2018-08-20T06:13:28.252Z,24.25
2018-08-20T06:15:56.780Z,24.22
2018-08-20T06:18:25.362Z,24.37
2018-08-20T06:20:54.157Z,24.64
2018-08-20T06:23:22.700Z,24.68
2018-08-20T06:25:51.161Z,24.45
2018-08-20T06:28:19.802Z,24.40
2018-08-20T06:30:48.252Z,24.47
2018-08-20T06:33:16.701Z,24.55
2018-08-20T06:35:45.188Z,24.59
2018-08-20T06:38:13.991Z,24.49
2018-08-20T06:40:42.443Z,25.12
2018-08-20T06:43:10.994Z,24.91
2018-08-20T06:45:39.445Z,25.07
2018-08-20T06:48:08.256Z,25.39
2018-08-20T06:50:36.663Z,25.56
2018-08-20T06:53:05.133Z,25.35
2018-08-20T06:55:33.630Z,25.25
2018-08-20T06:58:17.454Z,25.37
2018-08-20T07:00:46.023Z,25.70
2018-08-20T07:03:14.715Z,25.77
2018-08-20T07:05:43.252Z,25.44
2018-08-20T07:08:11.779Z,26.07
2018-08-20T07:10:47.312Z,25.89
2018-08-20T07:13:25.007Z,25.79
2018-08-20T07:15:53.843Z,25.70
2018-08-20T07:18:22.281Z,25.89
2018-08-20T07:20:51.321Z,25.92
2018-08-20T07:23:19.857Z,25.90
2018-08-20T07:25:48.372Z,25.49
2018-08-20T07:28:17.099Z,25.19
2018-08-20T07:30:46.131Z,25.23
2018-08-20T07:33:14.792Z,25.24
2018-08-20T07:35:43.299Z,25.55
2018-08-20T07:38:11.771Z,25.44
2018-08-20T07:40:40.312Z,25.55
2018-08-20T07:43:08.769Z,26.01
2018-08-20T07:45:47.716Z,25.89
2018-08-20T07:48:16.158Z,26.16
2018-08-20T07:50:44.883Z,26.44
2018-08-20T07:53:13.489Z,26.48
2018-08-20T07:55:42.405Z,26.09
2018-08-20T07:58:10.774Z,26.41
2018-08-20T08:00:39.372Z,26.50
2018-08-20T08:03:07.823Z,26.30
2018-08-20T08:05:36.357Z,26.82
2018-08-20T08:08:04.812Z,26.94
2018-08-20T08:10:33.508Z,27.05
2018-08-20T08:13:02.015Z,27.05
2018-08-20T08:15:30.468Z,27.09
2018-08-20T08:18:29.336Z,27.27
2018-08-20T08:20:57.772Z,27.42
2018-08-20T08:23:26.239Z,27.23
2018-08-20T08:25:54.652Z,27.51
2018-08-20T08:28:23.060Z,27.75
2018-08-20T08:30:51.559Z,28.26
2018-08-20T08:33:19.977Z,27.92
2018-08-20T08:35:48.439Z,28.00
2018-08-20T08:38:16.879Z,28.25
2018-08-20T08:40:45.543Z,27.95
2018-08-20T08:43:14.097Z,27.90
2018-08-20T08:45:42.570Z,28.21
2018-08-20T08:48:11.104Z,28.56
2018-08-20T08:50:40.199Z,28.26
2018-08-20T08:53:08.706Z,28.23
2018-08-20T08:55:37.212Z,28.55
2018-08-20T08:58:06.214Z,28.86
2018-08-20T09:00:34.693Z,29.35
2018-08-20T09:03:03.136Z,29.24
2018-08-20T09:05:31.591Z,29.06
2018-08-20T09:08:00.065Z,28.97
2018-08-20T09:10:28.545Z,29.35
2018-08-20T09:12:57.036Z,29.35
2018-08-20T09:15:25.523Z,29.44
2018-08-20T09:17:54.000Z,29.72
2018-08-20T09:20:22.432Z,29.60
2018-08-20T09:22:50.883Z,29.80
2018-08-20T09:25:19.328Z,29.77
2018-08-20T09:27:47.762Z,29.67
2018-08-20T09:30:20.731Z,30.04
2018-08-20T09:32:49.394Z,30.36
2018-08-20T09:35:17.852Z,29.91
2018-08-20T09:37:46.321Z,29.95
2018-08-20T09:40:15.446Z,30.26
2018-08-20T09:42:44.219Z,30.58
2018-08-20T09:45:12.659Z,30.68
2018-08-20T09:47:41.867Z,30.65
2018-08-20T09:50:12.111Z,30.66
2018-08-20T09:52:40.519Z,30.52
2018-08-20T09:55:09.673Z,30.81
2018-08-20T09:57:38.925Z,30.78
2018-08-20T10:00:11.735Z,30.89
2018-08-20T10:02:40.172Z,31.52
2018-08-20T10:05:08.633Z,31.01
2018-08-20T10:07:37.075Z,31.35
2018-08-20T10:10:06.260Z,31.52
2018-08-20T10:12:34.857Z,31.40
2018-08-20T10:15:03.379Z,31.34
2018-08-20T10:17:31.823Z,31.55
2018-08-20T10:20:00.404Z,31.44
2018-08-20T10:22:28.871Z,31.54
2018-08-20T10:24:57.543Z,32.03
2018-08-20T10:27:25.962Z,31.88
2018-08-20T10:29:54.489Z,31.86
2018-08-20T10:32:22.911Z,32.17
2018-08-20T10:34:51.575Z,32.06
2018-08-20T10:37:20.011Z,31.92
2018-08-20T10:39:48.518Z,32.87
2018-08-20T10:42:16.966Z,32.99
2018-08-20T10:44:50.707Z,32.54
2018-08-20T10:47:19.575Z,32.72
2018-08-20T10:49:48.293Z,32.03
2018-08-20T10:52:17.260Z,33.24
2018-08-20T10:54:45.718Z,32.73
2018-08-20T10:57:14.359Z,32.91
2018-08-20T10:59:42.802Z,32.96
2018-08-20T11:02:11.370Z,33.14
2018-08-20T11:04:39.848Z,33.85
2018-08-20T11:07:08.389Z,33.51
2018-08-20T11:09:36.704Z,33.83
2018-08-20T11:12:05.195Z,34.12
2018-08-20T11:14:33.649Z,33.86
2018-08-20T11:17:02.079Z,34.40
2018-08-20T11:19:30.490Z,33.97
2018-08-20T11:21:58.948Z,34.26
2018-08-20T11:24:27.376Z,34.34
2018-08-20T11:26:55.858Z,34.38
2018-08-20T11:29:24.237Z,34.45
2018-08-20T11:31:52.663Z,34.55
2018-08-20T11:34:21.324Z,35.61
2018-08-20T11:36:50.459Z,36.18
2018-08-20T11:39:18.892Z,35.47
2018-08-20T11:41:47.327Z,36.10
2018-08-20T11:44:16.102Z,35.77
2018-08-20T11:46:44.534Z,35.41
2018-08-20T11:49:12.994Z,36.27
2018-08-20T11:51:41.526Z,35.25
2018-08-20T11:54:10.015Z,35.13
2018-08-20T11:56:38.570Z,36.29
2018-08-20T11:59:07.439Z,35.73
2018-08-20T12:01:35.807Z,36.26
2018-08-20T12:04:04.291Z,36.01
2018-08-20T12:06:32.690Z,37.61
2018-08-20T12:09:01.362Z,35.97
2018-08-20T12:11:29.837Z,37.27
2018-08-20T12:13:58.300Z,36.47
2018-08-20T12:16:27.072Z,36.45
2018-08-20T12:18:56.121Z,37.17
2018-08-20T12:21:24.892Z,36.43
2018-08-20T12:23:53.689Z,37.03
2018-08-20T12:26:22.144Z,37.72
2018-08-20T12:28:50.607Z,37.56
2018-08-20T12:31:19.184Z,37.62
2018-08-20T12:33:47.629Z,37.82
2018-08-20T12:36:16.088Z,38.70
2018-08-20T12:38:45.050Z,38.33
2018-08-20T12:41:13.631Z,38.48
2018-08-20T12:43:42.048Z,38.47
2018-08-20T12:46:10.537Z,36.64
2018-08-20T12:48:38.964Z,38.78
2018-08-20T12:51:07.215Z,37.48
2018-08-20T12:53:35.772Z,39.69
2018-08-20T12:56:04.362Z,39.20
2018-08-20T12:58:33.058Z,39.88
2018-08-20T13:01:01.654Z,40.00
2018-08-20T13:03:30.044Z,39.86
2018-08-20T13:05:58.472Z,38.50
2018-08-20T13:08:26.951Z,39.05
2018-08-20T13:10:55.556Z,39.11
2018-08-20T13:13:24.052Z,39.70
2018-08-20T13:15:52.722Z,38.53
2018-08-20T13:18:21.064Z,38.29
2018-08-20T13:20:49.491Z,37.88
2018-08-20T13:23:17.996Z,38.97
2018-08-20T13:25:46.430Z,36.61
2018-08-20T13:28:15.183Z,37.13
2018-08-20T13:30:43.886Z,38.91
2018-08-20T13:34:15.280Z,39.64
2018-08-20T13:36:43.903Z,38.82
2018-08-20T13:39:12.700Z,39.57
2018-08-20T13:41:41.134Z,38.04
2018-08-20T13:44:09.725Z,38.93
2018-08-20T13:46:38.048Z,38.92
2018-08-20T13:49:06.508Z,39.43
2018-08-20T13:51:35.013Z,39.10
2018-08-20T13:54:03.485Z,37.44
2018-08-20T13:56:31.923Z,36.22
2018-08-20T13:59:00.364Z,36.53
2018-08-20T14:01:28.928Z,37.54
2018-08-20T14:03:57.875Z,37.03
2018-08-20T14:06:26.343Z,38.50
2018-08-20T14:08:54.776Z,39.47
2018-08-20T14:11:23.924Z,38.36
2018-08-20T14:13:52.356Z,40.06
2018-08-20T14:16:20.858Z,37.52
2018-08-20T14:18:49.336Z,39.04
2018-08-20T14:21:17.817Z,39.35
2018-08-20T14:23:47.684Z,39.76
2018-08-20T14:26:16.221Z,38.30
2018-08-20T14:28:45.035Z,38.65
2018-08-20T14:31:13.449Z,39.19
2018-08-20T14:33:42.069Z,38.42
2018-08-20T14:36:10.691Z,39.62
2018-08-20T14:38:39.143Z,39.47
2018-08-20T14:41:07.648Z,39.67
2018-08-20T14:43:36.168Z,40.43
2018-08-20T14:46:09.931Z,39.93
2018-08-20T14:48:38.349Z,39.45
2018-08-20T14:51:07.210Z,39.56
2018-08-20T14:53:35.675Z,38.24
2018-08-20T14:56:04.120Z,38.80
2018-08-20T14:58:32.731Z,39.32
2018-08-20T15:01:01.299Z,36.60
2018-08-20T15:03:29.912Z,38.28
2018-08-20T15:05:58.518Z,38.14
2018-08-20T15:08:26.971Z,37.51
2018-08-20T15:11:10.260Z,38.00
2018-08-20T15:13:38.724Z,38.43
2018-08-20T15:16:07.734Z,37.18
2018-08-20T15:18:36.224Z,36.72
2018-08-20T15:21:04.720Z,38.04
2018-08-20T15:23:33.190Z,37.71
2018-08-20T15:26:01.986Z,38.64
2018-08-20T15:28:30.523Z,37.74
2018-08-20T15:30:59.011Z,37.94
2018-08-20T15:33:27.435Z,38.96
2018-08-20T15:35:56.243Z,38.18
2018-08-20T15:38:24.986Z,38.70
2018-08-20T15:40:53.913Z,38.65
2018-08-20T15:43:22.703Z,36.63
2018-08-20T15:45:51.112Z,36.57
2018-08-20T15:48:19.781Z,36.41
2018-08-20T15:50:48.427Z,38.41
2018-08-20T15:53:16.851Z,37.45
2018-08-20T15:55:45.316Z,37.60
2018-08-20T15:58:13.775Z,37.20
2018-08-20T16:01:44.826Z,37.64
2018-08-20T16:04:14.172Z,37.76
2018-08-20T16:06:43.099Z,36.87
2018-08-20T16:09:11.522Z,36.68
2018-08-20T16:11:39.986Z,37.08
2018-08-20T16:14:08.478Z,37.58
2018-08-20T16:16:36.923Z,36.11
2018-08-20T16:19:05.785Z,37.25
2018-08-20T16:21:34.432Z,36.79
2018-08-20T16:24:03.407Z,37.47
2018-08-20T16:26:31.866Z,37.19
2018-08-20T16:29:00.723Z,36.90
2018-08-20T16:31:29.506Z,37.78
2018-08-20T16:33:57.950Z,38.23
2018-08-20T16:36:26.484Z,37.62
2018-08-20T16:38:55.046Z,36.46
2018-08-20T16:41:23.543Z,36.46
2018-08-20T16:43:51.958Z,36.73
2018-08-20T16:46:20.601Z,36.96
2018-08-20T16:48:49.086Z,36.91
2018-08-20T16:51:17.507Z,36.99
2018-08-20T16:53:45.964Z,37.29
2018-08-20T16:56:14.744Z,38.17
2018-08-20T16:58:43.261Z,37.85
2018-08-20T17:01:15.043Z,37.75
2018-08-20T17:03:43.517Z,37.53
2018-08-20T17:06:11.936Z,35.48
2018-08-20T17:08:42.918Z,36.72
2018-08-20T17:11:12.096Z,35.79
2018-08-20T17:13:41.792Z,34.98
2018-08-20T17:16:12.607Z,36.76
2018-08-20T17:18:41.626Z,36.36
2018-08-20T17:21:10.075Z,35.92
2018-08-20T17:23:38.718Z,36.01
2018-08-20T17:29:11.725Z,35.27
2018-08-20T17:31:40.674Z,34.56
2018-08-20T17:34:09.342Z,34.80
2018-08-20T17:36:39.664Z,34.83
2018-08-20T17:39:09.179Z,34.77
2018-08-20T17:41:37.632Z,34.72
2018-08-20T17:44:06.134Z,34.07
2018-08-20T17:46:34.688Z,33.72
2018-08-20T17:49:03.080Z,32.98
2018-08-20T17:51:31.550Z,33.20
2018-08-20T17:54:00.440Z,32.61
2018-08-20T17:56:29.154Z,32.36
2018-08-20T17:59:02.511Z,31.94
2018-08-20T18:01:35.834Z,31.58
2018-08-20T18:04:04.874Z,31.55
2018-08-20T18:06:47.976Z,31.49
2018-08-20T18:09:16.841Z,31.44
2018-08-20T18:11:51.268Z,31.35
2018-08-20T18:14:22.354Z,31.10
2018-08-20T18:16:50.862Z,30.76
2018-08-20T18:19:19.430Z,30.47
2018-08-20T18:21:48.038Z,30.62
2018-08-20T18:24:18.825Z,30.12
2018-08-20T18:26:50.144Z,30.22
2018-08-20T18:29:18.615Z,29.92
2018-08-20T18:31:52.599Z,29.72
2018-08-20T18:34:21.648Z,29.57
2018-08-20T18:36:50.107Z,29.49
2018-08-20T18:39:18.524Z,29.44
2018-08-20T18:42:49.664Z,29.28
2018-08-20T18:45:18.240Z,29.14
2018-08-20T18:47:46.776Z,29.13
2018-08-20T18:50:15.265Z,29.06
2018-08-20T18:52:44.125Z,28.94
2018-08-20T18:55:12.599Z,28.76
2018-08-20T18:57:41.104Z,28.64
2018-08-20T19:00:13.635Z,28.68
2018-08-20T19:02:49.233Z,28.73
2018-08-20T19:05:18.936Z,28.63
2018-08-20T19:07:47.609Z,28.38
2018-08-20T19:10:34.444Z,28.62
2018-08-20T19:13:05.974Z,28.74
2018-08-20T19:15:39.013Z,28.46
2018-08-20T19:18:09.112Z,28.10
2018-08-20T19:20:41.369Z,27.85
2018-08-20T19:23:09.877Z,27.80
2018-08-20T19:25:38.634Z,27.95
2018-08-20T19:28:13.361Z,27.86
2018-08-20T19:30:41.888Z,27.72
2018-08-20T19:33:15.444Z,27.61
2018-08-20T19:35:43.916Z,27.54
2018-08-20T19:38:12.375Z,27.42
2018-08-20T19:40:40.801Z,27.63
2018-08-20T19:43:09.270Z,27.68
2018-08-20T19:45:42.854Z,27.75
2018-08-20T19:48:12.462Z,27.75
2018-08-20T19:50:41.112Z,27.70
2018-08-20T19:53:17.596Z,27.63
2018-08-20T19:55:46.997Z,27.53
2018-08-20T19:58:20.821Z,27.59
2018-08-20T20:01:02.274Z,27.62
2018-08-20T20:03:32.196Z,27.83
2018-08-20T20:06:00.778Z,27.77
2018-08-20T20:08:29.338Z,27.51
2018-08-20T20:10:57.847Z,27.55
2018-08-20T20:13:26.421Z,27.64
2018-08-20T20:15:55.565Z,27.18
2018-08-20T20:18:24.072Z,27.20
2018-08-20T20:20:52.782Z,27.10
2018-08-20T20:23:21.507Z,27.02
2018-08-20T20:25:49.979Z,26.94
2018-08-20T20:28:18.493Z,26.73
2018-08-20T20:30:46.969Z,26.65
2018-08-20T20:33:15.468Z,26.90
2018-08-20T20:35:43.927Z,26.78
2018-08-20T20:38:12.391Z,26.67
2018-08-20T20:40:41.080Z,26.48
2018-08-20T20:43:09.513Z,26.24
2018-08-20T20:45:37.957Z,26.35
2018-08-20T20:48:06.394Z,26.21
2018-08-20T20:50:34.820Z,26.06
2018-08-20T20:53:03.276Z,25.89
2018-08-20T20:55:31.712Z,25.88
2018-08-20T20:58:00.201Z,25.84
2018-08-20T21:00:28.636Z,25.84
2018-08-20T21:03:03.219Z,25.85
2018-08-20T21:05:31.675Z,25.69
2018-08-20T21:08:00.121Z,25.61
2018-08-20T21:10:33.310Z,25.64
2018-08-20T21:13:01.753Z,25.71
2018-08-20T21:15:30.236Z,25.57
2018-08-20T21:17:58.806Z,25.64
2018-08-20T21:20:27.356Z,25.58
2018-08-20T21:22:55.816Z,25.60
2018-08-20T21:25:24.265Z,25.59
2018-08-20T21:27:52.775Z,25.56
2018-08-20T21:30:21.351Z,25.55
2018-08-20T21:32:49.809Z,25.55
2018-08-20T21:35:18.207Z,25.45
2018-08-20T21:37:46.654Z,25.28
2018-08-20T21:40:19.671Z,25.32
2018-08-20T21:42:48.127Z,25.36
2018-08-20T21:45:16.605Z,25.41
2018-08-20T21:47:45.027Z,25.34
2018-08-20T21:50:13.468Z,25.31
2018-08-20T21:52:42.235Z,25.34
2018-08-20T21:55:10.720Z,25.36
2018-08-20T21:57:43.616Z,25.32
2018-08-20T22:00:15.807Z,25.44
2018-08-20T22:02:49.465Z,25.39
2018-08-20T22:05:18.590Z,25.36
2018-08-20T22:07:47.547Z,25.35
2018-08-20T22:10:16.783Z,25.24
2018-08-20T22:12:46.049Z,25.30
2018-08-20T22:15:14.812Z,25.36
2018-08-20T22:17:43.939Z,25.29
2018-08-20T22:20:13.645Z,25.28
2018-08-20T22:22:42.982Z,25.29
2018-08-20T22:25:13.104Z,25.18
2018-08-20T22:27:46.815Z,25.22
2018-08-20T22:30:15.367Z,25.32
2018-08-20T22:32:44.335Z,25.30
2018-08-20T22:35:17.829Z,25.21
2018-08-20T22:37:49.216Z,25.24
2018-08-20T22:40:19.591Z,25.08
2018-08-20T22:42:54.027Z,25.10
2018-08-20T22:45:23.377Z,24.91
2018-08-20T22:47:52.674Z,24.68
2018-08-20T22:50:21.159Z,24.26
2018-08-20T22:52:51.116Z,24.18
2018-08-20T22:55:22.083Z,24.55
2018-08-20T22:58:06.475Z,24.84
2018-08-20T23:00:34.924Z,24.91
2018-08-20T23:03:03.384Z,25.00
2018-08-20T23:05:32.954Z,24.64
2018-08-20T23:08:07.710Z,24.84
2018-08-20T23:10:39.464Z,24.96
2018-08-20T23:13:07.912Z,25.01
2018-08-20T23:15:36.345Z,25.08
2018-08-20T23:18:05.910Z,24.96
2018-08-20T23:20:34.399Z,24.99
2018-08-20T23:23:02.858Z,24.92
2018-08-20T23:25:31.336Z,24.86
2018-08-20T23:28:14.020Z,24.79
2018-08-20T23:30:46.808Z,24.76
2018-08-20T23:33:15.355Z,24.51
2018-08-20T23:35:43.889Z,24.77
2018-08-20T23:38:12.336Z,24.93
2018-08-20T23:40:40.828Z,24.82
2018-08-20T23:43:09.263Z,24.49
2018-08-20T23:45:37.741Z,24.44
2018-08-20T23:48:06.228Z,24.55
2018-08-20T23:50:35.012Z,24.51
2018-08-20T23:53:03.475Z,24.27
2018-08-20T23:55:31.986Z,24.05
2018-08-20T23:58:00.798Z,23.99
